sensor_id;sensor_type;location;lat;lon;timestamp;P1;durP1;ratioP1;P2;durP2;ratioP2
64633;SDS011;51043;52.406;9.690;2023-04-25T00:01:16;17.43;;;5.10;;
64633;SDS011;51043;52.406;9.690;2023-04-25T00:03:44;16.27;;;5.50;;
64633;SDS011;51043;52.406;9.690;2023-04-25T00:06:13;15.93;;;4.93;;
64633;SDS011;51043;52.406;9.690;2023-04-25T00:08:41;11.30;;;4.07;;
64633;SDS011;51043;52.406;9.690;2023-04-25T00:11:11;17.97;;;5.40;;
64633;SDS011;51043;52.406;9.690;2023-04-25T00:13:39;12.73;;;4.80;;
64633;SDS011;51043;52.406;9.690;2023-04-25T00:16:08;16.83;;;5.20;;
64633;SDS011;51043;52.406;9.690;2023-04-25T00:18:37;17.83;;;5.00;;
64633;SDS011;51043;52.406;9.690;2023-04-25T00:21:04;12.27;;;4.90;;
64633;SDS011;51043;52.406;9.690;2023-04-25T00:23:33;20.87;;;5.67;;
64633;SDS011;51043;52.406;9.690;2023-04-25T00:26:05;11.20;;;4.97;;
64633;SDS011;51043;52.406;9.690;2023-04-25T00:28:34;12.97;;;5.00;;
64633;SDS011;51043;52.406;9.690;2023-04-25T00:31:02;14.40;;;4.77;;
64633;SDS011;51043;52.406;9.690;2023-04-25T00:33:30;13.00;;;5.20;;
64633;SDS011;51043;52.406;9.690;2023-04-25T00:36:01;15.60;;;5.27;;
64633;SDS011;51043;52.406;9.690;2023-04-25T00:38:30;13.53;;;5.13;;
64633;SDS011;51043;52.406;9.690;2023-04-25T00:41:04;11.80;;;5.20;;
64633;SDS011;51043;52.406;9.690;2023-04-25T00:43:34;12.80;;;4.70;;
64633;SDS011;51043;52.406;9.690;2023-04-25T00:46:04;10.27;;;5.47;;
64633;SDS011;51043;52.406;9.690;2023-04-25T00:48:32;14.27;;;5.63;;
64633;SDS011;51043;52.406;9.690;2023-04-25T00:51:00;11.07;;;4.90;;
64633;SDS011;51043;52.406;9.690;2023-04-25T00:53:29;10.37;;;5.23;;
64633;SDS011;51043;52.406;9.690;2023-04-25T00:56:03;14.47;;;5.07;;
64633;SDS011;51043;52.406;9.690;2023-04-25T00:58:31;11.80;;;4.47;;
64633;SDS011;51043;52.406;9.690;2023-04-25T01:01:03;15.17;;;4.73;;
64633;SDS011;51043;52.406;9.690;2023-04-25T01:03:33;7.10;;;3.50;;
64633;SDS011;51043;52.406;9.690;2023-04-25T01:06:07;12.13;;;5.73;;
64633;SDS011;51043;52.406;9.690;2023-04-25T01:08:37;12.90;;;5.07;;
64633;SDS011;51043;52.406;9.690;2023-04-25T01:11:06;14.67;;;5.43;;
64633;SDS011;51043;52.406;9.690;2023-04-25T01:13:34;13.47;;;5.47;;
64633;SDS011;51043;52.406;9.690;2023-04-25T01:16:07;10.83;;;3.17;;
64633;SDS011;51043;52.406;9.690;2023-04-25T01:18:36;18.30;;;6.17;;
64633;SDS011;51043;52.406;9.690;2023-04-25T01:21:08;14.80;;;5.33;;
64633;SDS011;51043;52.406;9.690;2023-04-25T01:23:37;15.00;;;5.07;;
64633;SDS011;51043;52.406;9.690;2023-04-25T01:26:06;19.57;;;6.00;;
64633;SDS011;51043;52.406;9.690;2023-04-25T01:28:36;8.97;;;3.17;;
64633;SDS011;51043;52.406;9.690;2023-04-25T01:31:05;12.53;;;4.63;;
64633;SDS011;51043;52.406;9.690;2023-04-25T01:33:34;14.13;;;5.87;;
64633;SDS011;51043;52.406;9.690;2023-04-25T01:36:02;11.77;;;4.80;;
64633;SDS011;51043;52.406;9.690;2023-04-25T01:38:35;16.93;;;6.33;;
64633;SDS011;51043;52.406;9.690;2023-04-25T01:41:03;13.93;;;5.47;;
64633;SDS011;51043;52.406;9.690;2023-04-25T01:43:32;12.47;;;5.47;;
64633;SDS011;51043;52.406;9.690;2023-04-25T01:46:01;16.07;;;5.87;;
64633;SDS011;51043;52.406;9.690;2023-04-25T01:48:30;17.07;;;5.93;;
64633;SDS011;51043;52.406;9.690;2023-04-25T01:50:58;10.67;;;5.33;;
64633;SDS011;51043;52.406;9.690;2023-04-25T01:53:27;14.30;;;5.87;;
64633;SDS011;51043;52.406;9.690;2023-04-25T01:55:57;17.43;;;7.17;;
64633;SDS011;51043;52.406;9.690;2023-04-25T01:58:31;16.03;;;5.73;;
64633;SDS011;51043;52.406;9.690;2023-04-25T02:01:07;18.33;;;6.63;;
64633;SDS011;51043;52.406;9.690;2023-04-25T02:03:42;13.47;;;5.80;;
64633;SDS011;51043;52.406;9.690;2023-04-25T02:06:22;15.73;;;7.70;;
64633;SDS011;51043;52.406;9.690;2023-04-25T02:08:52;10.90;;;4.47;;
64633;SDS011;51043;52.406;9.690;2023-04-25T02:11:21;20.77;;;6.83;;
64633;SDS011;51043;52.406;9.690;2023-04-25T02:14:07;17.93;;;7.27;;
64633;SDS011;51043;52.406;9.690;2023-04-25T02:16:58;7.33;;;4.23;;
64633;SDS011;51043;52.406;9.690;2023-04-25T02:19:29;16.53;;;6.00;;
64633;SDS011;51043;52.406;9.690;2023-04-25T02:21:57;11.07;;;5.07;;
64633;SDS011;51043;52.406;9.690;2023-04-25T02:24:25;14.93;;;5.67;;
64633;SDS011;51043;52.406;9.690;2023-04-25T02:27:04;15.60;;;5.53;;
64633;SDS011;51043;52.406;9.690;2023-04-25T02:29:33;19.67;;;5.63;;
64633;SDS011;51043;52.406;9.690;2023-04-25T02:32:01;22.17;;;5.83;;
64633;SDS011;51043;52.406;9.690;2023-04-25T02:34:32;18.00;;;4.87;;
64633;SDS011;51043;52.406;9.690;2023-04-25T02:37:01;14.30;;;4.53;;
64633;SDS011;51043;52.406;9.690;2023-04-25T02:39:32;13.10;;;4.17;;
64633;SDS011;51043;52.406;9.690;2023-04-25T02:42:00;17.20;;;4.60;;
64633;SDS011;51043;52.406;9.690;2023-04-25T02:44:33;22.10;;;5.00;;
64633;SDS011;51043;52.406;9.690;2023-04-25T02:47:01;22.93;;;4.67;;
64633;SDS011;51043;52.406;9.690;2023-04-25T02:49:29;21.93;;;5.10;;
64633;SDS011;51043;52.406;9.690;2023-04-25T02:51:57;25.30;;;5.73;;
64633;SDS011;51043;52.406;9.690;2023-04-25T02:54:26;21.97;;;4.90;;
64633;SDS011;51043;52.406;9.690;2023-04-25T02:56:55;18.50;;;5.20;;
64633;SDS011;51043;52.406;9.690;2023-04-25T02:59:26;23.27;;;5.30;;
64633;SDS011;51043;52.406;9.690;2023-04-25T03:01:56;21.10;;;5.17;;
64633;SDS011;51043;52.406;9.690;2023-04-25T03:04:24;26.87;;;5.90;;
64633;SDS011;51043;52.406;9.690;2023-04-25T03:06:53;23.67;;;5.17;;
64633;SDS011;51043;52.406;9.690;2023-04-25T03:09:23;22.00;;;4.60;;
64633;SDS011;51043;52.406;9.690;2023-04-25T03:11:52;24.70;;;5.97;;
64633;SDS011;51043;52.406;9.690;2023-04-25T03:14:23;28.03;;;5.50;;
64633;SDS011;51043;52.406;9.690;2023-04-25T03:16:52;16.63;;;4.70;;
64633;SDS011;51043;52.406;9.690;2023-04-25T03:19:22;27.13;;;5.93;;
64633;SDS011;51043;52.406;9.690;2023-04-25T03:21:53;19.93;;;5.10;;
64633;SDS011;51043;52.406;9.690;2023-04-25T03:24:21;28.93;;;5.87;;
64633;SDS011;51043;52.406;9.690;2023-04-25T03:26:52;23.40;;;6.60;;
64633;SDS011;51043;52.406;9.690;2023-04-25T03:29:20;28.63;;;5.47;;
64633;SDS011;51043;52.406;9.690;2023-04-25T03:31:54;20.70;;;5.90;;
64633;SDS011;51043;52.406;9.690;2023-04-25T03:34:23;23.37;;;5.40;;
64633;SDS011;51043;52.406;9.690;2023-04-25T03:36:56;14.60;;;4.00;;
64633;SDS011;51043;52.406;9.690;2023-04-25T03:39:24;24.73;;;5.17;;
64633;SDS011;51043;52.406;9.690;2023-04-25T03:41:55;21.07;;;4.87;;
64633;SDS011;51043;52.406;9.690;2023-04-25T03:44:24;16.40;;;4.87;;
64633;SDS011;51043;52.406;9.690;2023-04-25T03:46:52;23.00;;;5.63;;
64633;SDS011;51043;52.406;9.690;2023-04-25T03:49:24;19.67;;;4.83;;
64633;SDS011;51043;52.406;9.690;2023-04-25T03:51:57;18.20;;;5.40;;
64633;SDS011;51043;52.406;9.690;2023-04-25T03:54:26;15.13;;;3.83;;
64633;SDS011;51043;52.406;9.690;2023-04-25T03:57:00;20.03;;;5.10;;
64633;SDS011;51043;52.406;9.690;2023-04-25T03:59:32;25.63;;;5.63;;
64633;SDS011;51043;52.406;9.690;2023-04-25T04:02:00;26.80;;;6.27;;
64633;SDS011;51043;52.406;9.690;2023-04-25T04:04:34;28.23;;;6.13;;
64633;SDS011;51043;52.406;9.690;2023-04-25T04:07:02;26.43;;;5.07;;
64633;SDS011;51043;52.406;9.690;2023-04-25T04:09:36;26.10;;;6.30;;
64633;SDS011;51043;52.406;9.690;2023-04-25T04:12:14;22.60;;;5.87;;
64633;SDS011;51043;52.406;9.690;2023-04-25T04:14:42;23.63;;;5.60;;
64633;SDS011;51043;52.406;9.690;2023-04-25T04:17:10;26.40;;;5.40;;
64633;SDS011;51043;52.406;9.690;2023-04-25T04:19:42;27.73;;;5.90;;
64633;SDS011;51043;52.406;9.690;2023-04-25T04:22:15;7.17;;;3.03;;
64633;SDS011;51043;52.406;9.690;2023-04-25T04:24:43;25.53;;;5.57;;
64633;SDS011;51043;52.406;9.690;2023-04-25T04:27:16;31.07;;;6.17;;
64633;SDS011;51043;52.406;9.690;2023-04-25T04:29:54;27.03;;;5.20;;
64633;SDS011;51043;52.406;9.690;2023-04-25T04:32:31;24.00;;;5.77;;
64633;SDS011;51043;52.406;9.690;2023-04-25T04:35:03;27.50;;;5.50;;
64633;SDS011;51043;52.406;9.690;2023-04-25T04:37:32;23.83;;;6.07;;
64633;SDS011;51043;52.406;9.690;2023-04-25T04:40:01;32.63;;;6.20;;
64633;SDS011;51043;52.406;9.690;2023-04-25T04:42:45;22.00;;;5.07;;
64633;SDS011;51043;52.406;9.690;2023-04-25T04:45:20;21.60;;;5.10;;
64633;SDS011;51043;52.406;9.690;2023-04-25T04:48:05;27.17;;;6.30;;
64633;SDS011;51043;52.406;9.690;2023-04-25T04:50:42;25.97;;;5.03;;
64633;SDS011;51043;52.406;9.690;2023-04-25T04:53:41;29.10;;;6.17;;
64633;SDS011;51043;52.406;9.690;2023-04-25T04:56:18;27.90;;;6.80;;
64633;SDS011;51043;52.406;9.690;2023-04-25T04:58:47;27.40;;;5.57;;
64633;SDS011;51043;52.406;9.690;2023-04-25T05:01:28;25.20;;;5.63;;
64633;SDS011;51043;52.406;9.690;2023-04-25T05:04:16;24.77;;;5.83;;
64633;SDS011;51043;52.406;9.690;2023-04-25T05:07:02;26.37;;;5.73;;
64633;SDS011;51043;52.406;9.690;2023-04-25T05:09:30;29.40;;;4.83;;
64633;SDS011;51043;52.406;9.690;2023-04-25T05:12:08;24.37;;;4.50;;
64633;SDS011;51043;52.406;9.690;2023-04-25T05:14:48;22.53;;;5.43;;
64633;SDS011;51043;52.406;9.690;2023-04-25T05:17:39;31.13;;;5.53;;
64633;SDS011;51043;52.406;9.690;2023-04-25T05:20:26;20.80;;;4.73;;
64633;SDS011;51043;52.406;9.690;2023-04-25T05:23:20;25.47;;;5.33;;
64633;SDS011;51043;52.406;9.690;2023-04-25T05:26:11;21.80;;;5.13;;
64633;SDS011;51043;52.406;9.690;2023-04-25T05:28:54;20.07;;;4.83;;
64633;SDS011;51043;52.406;9.690;2023-04-25T05:31:54;17.43;;;4.93;;
64633;SDS011;51043;52.406;9.690;2023-04-25T05:34:23;30.43;;;5.47;;
64633;SDS011;51043;52.406;9.690;2023-04-25T05:36:55;13.43;;;3.80;;
64633;SDS011;51043;52.406;9.690;2023-04-25T05:39:25;23.77;;;4.80;;
64633;SDS011;51043;52.406;9.690;2023-04-25T05:42:21;24.03;;;4.47;;
64633;SDS011;51043;52.406;9.690;2023-04-25T05:45:04;29.17;;;5.70;;
64633;SDS011;51043;52.406;9.690;2023-04-25T05:47:41;16.17;;;4.10;;
64633;SDS011;51043;52.406;9.690;2023-04-25T05:50:27;23.80;;;4.63;;
64633;SDS011;51043;52.406;9.690;2023-04-25T05:53:02;19.80;;;4.83;;
64633;SDS011;51043;52.406;9.690;2023-04-25T05:55:39;25.53;;;4.90;;
64633;SDS011;51043;52.406;9.690;2023-04-25T05:58:25;16.73;;;4.33;;
64633;SDS011;51043;52.406;9.690;2023-04-25T06:00:57;21.20;;;4.17;;
64633;SDS011;51043;52.406;9.690;2023-04-25T06:03:25;21.73;;;5.33;;
64633;SDS011;51043;52.406;9.690;2023-04-25T06:05:56;30.53;;;5.50;;
64633;SDS011;51043;52.406;9.690;2023-04-25T06:08:25;12.80;;;3.77;;
64633;SDS011;51043;52.406;9.690;2023-04-25T06:10:54;17.13;;;4.80;;
64633;SDS011;51043;52.406;9.690;2023-04-25T06:13:22;24.33;;;5.07;;
64633;SDS011;51043;52.406;9.690;2023-04-25T06:15:57;19.67;;;4.73;;
64633;SDS011;51043;52.406;9.690;2023-04-25T06:18:25;17.63;;;3.80;;
64633;SDS011;51043;52.406;9.690;2023-04-25T06:20:53;15.37;;;3.87;;
64633;SDS011;51043;52.406;9.690;2023-04-25T06:23:25;13.27;;;4.17;;
64633;SDS011;51043;52.406;9.690;2023-04-25T06:26:01;15.50;;;3.80;;
64633;SDS011;51043;52.406;9.690;2023-04-25T06:28:31;23.00;;;5.10;;
64633;SDS011;51043;52.406;9.690;2023-04-25T06:30:59;21.33;;;5.17;;
64633;SDS011;51043;52.406;9.690;2023-04-25T06:33:28;28.20;;;5.43;;
64633;SDS011;51043;52.406;9.690;2023-04-25T06:35:56;13.50;;;3.97;;
64633;SDS011;51043;52.406;9.690;2023-04-25T06:38:26;21.57;;;5.03;;
64633;SDS011;51043;52.406;9.690;2023-04-25T06:40:56;21.80;;;5.13;;
64633;SDS011;51043;52.406;9.690;2023-04-25T06:43:28;22.90;;;4.63;;
64633;SDS011;51043;52.406;9.690;2023-04-25T06:46:23;19.00;;;3.83;;
64633;SDS011;51043;52.406;9.690;2023-04-25T06:48:53;17.47;;;3.80;;
64633;SDS011;51043;52.406;9.690;2023-04-25T06:51:24;13.93;;;4.07;;
64633;SDS011;51043;52.406;9.690;2023-04-25T06:53:56;4.60;;;2.17;;
64633;SDS011;51043;52.406;9.690;2023-04-25T06:56:30;18.40;;;4.23;;
64633;SDS011;51043;52.406;9.690;2023-04-25T06:59:07;23.67;;;4.73;;
64633;SDS011;51043;52.406;9.690;2023-04-25T07:01:38;9.30;;;2.70;;
64633;SDS011;51043;52.406;9.690;2023-04-25T07:04:14;19.70;;;4.53;;
64633;SDS011;51043;52.406;9.690;2023-04-25T07:06:48;15.07;;;3.63;;
64633;SDS011;51043;52.406;9.690;2023-04-25T07:09:20;11.43;;;3.57;;
64633;SDS011;51043;52.406;9.690;2023-04-25T07:11:49;18.60;;;3.60;;
64633;SDS011;51043;52.406;9.690;2023-04-25T07:14:19;7.70;;;2.70;;
64633;SDS011;51043;52.406;9.690;2023-04-25T07:16:47;9.73;;;2.27;;
64633;SDS011;51043;52.406;9.690;2023-04-25T07:19:15;17.87;;;4.60;;
64633;SDS011;51043;52.406;9.690;2023-04-25T07:21:44;15.83;;;4.30;;
64633;SDS011;51043;52.406;9.690;2023-04-25T07:24:12;15.53;;;4.30;;
64633;SDS011;51043;52.406;9.690;2023-04-25T07:26:44;14.57;;;5.17;;
64633;SDS011;51043;52.406;9.690;2023-04-25T07:29:27;17.20;;;3.67;;
64633;SDS011;51043;52.406;9.690;2023-04-25T07:31:58;9.37;;;2.50;;
64633;SDS011;51043;52.406;9.690;2023-04-25T07:34:26;14.07;;;3.90;;
64633;SDS011;51043;52.406;9.690;2023-04-25T07:36:54;15.63;;;4.20;;
64633;SDS011;51043;52.406;9.690;2023-04-25T07:39:31;9.37;;;3.80;;
64633;SDS011;51043;52.406;9.690;2023-04-25T07:42:00;14.40;;;3.73;;
64633;SDS011;51043;52.406;9.690;2023-04-25T07:44:30;14.77;;;3.33;;
64633;SDS011;51043;52.406;9.690;2023-04-25T07:46:59;9.00;;;2.67;;
64633;SDS011;51043;52.406;9.690;2023-04-25T07:49:29;13.43;;;3.63;;
64633;SDS011;51043;52.406;9.690;2023-04-25T07:51:57;9.17;;;3.13;;
64633;SDS011;51043;52.406;9.690;2023-04-25T07:54:26;13.23;;;3.43;;
64633;SDS011;51043;52.406;9.690;2023-04-25T07:57:00;8.70;;;2.80;;
64633;SDS011;51043;52.406;9.690;2023-04-25T07:59:31;15.23;;;4.40;;
64633;SDS011;51043;52.406;9.690;2023-04-25T08:02:01;13.13;;;3.43;;
64633;SDS011;51043;52.406;9.690;2023-04-25T08:04:29;15.03;;;4.00;;
64633;SDS011;51043;52.406;9.690;2023-04-25T08:07:02;10.00;;;2.83;;
64633;SDS011;51043;52.406;9.690;2023-04-25T08:09:37;11.23;;;3.73;;
64633;SDS011;51043;52.406;9.690;2023-04-25T08:12:10;18.13;;;3.07;;
64633;SDS011;51043;52.406;9.690;2023-04-25T08:14:40;14.50;;;3.47;;
64633;SDS011;51043;52.406;9.690;2023-04-25T08:17:09;9.87;;;3.03;;
64633;SDS011;51043;52.406;9.690;2023-04-25T08:19:39;8.83;;;2.83;;
64633;SDS011;51043;52.406;9.690;2023-04-25T08:22:15;14.13;;;4.50;;
64633;SDS011;51043;52.406;9.690;2023-04-25T08:24:50;8.43;;;2.80;;
64633;SDS011;51043;52.406;9.690;2023-04-25T08:27:19;8.10;;;2.93;;
64633;SDS011;51043;52.406;9.690;2023-04-25T08:29:48;7.40;;;2.33;;
64633;SDS011;51043;52.406;9.690;2023-04-25T08:32:18;14.03;;;3.40;;
64633;SDS011;51043;52.406;9.690;2023-04-25T08:35:14;10.60;;;2.83;;
64633;SDS011;51043;52.406;9.690;2023-04-25T08:37:44;7.83;;;2.63;;
64633;SDS011;51043;52.406;9.690;2023-04-25T08:40:14;16.40;;;3.57;;
64633;SDS011;51043;52.406;9.690;2023-04-25T08:42:54;15.63;;;4.13;;
64633;SDS011;51043;52.406;9.690;2023-04-25T08:45:27;6.07;;;2.77;;
64633;SDS011;51043;52.406;9.690;2023-04-25T08:47:59;11.53;;;3.00;;
64633;SDS011;51043;52.406;9.690;2023-04-25T08:50:28;9.77;;;2.93;;
64633;SDS011;51043;52.406;9.690;2023-04-25T08:53:00;9.13;;;2.43;;
64633;SDS011;51043;52.406;9.690;2023-04-25T08:55:36;11.03;;;3.07;;
64633;SDS011;51043;52.406;9.690;2023-04-25T08:58:09;6.23;;;2.53;;
64633;SDS011;51043;52.406;9.690;2023-04-25T09:00:40;4.13;;;1.93;;
64633;SDS011;51043;52.406;9.690;2023-04-25T09:03:08;10.83;;;2.80;;
64633;SDS011;51043;52.406;9.690;2023-04-25T09:05:37;9.67;;;1.70;;
64633;SDS011;51043;52.406;9.690;2023-04-25T09:08:09;10.83;;;2.47;;
64633;SDS011;51043;52.406;9.690;2023-04-25T09:10:38;8.60;;;1.80;;
64633;SDS011;51043;52.406;9.690;2023-04-25T09:13:08;9.20;;;2.60;;
64633;SDS011;51043;52.406;9.690;2023-04-25T09:16:00;3.50;;;1.70;;
64633;SDS011;51043;52.406;9.690;2023-04-25T09:18:37;7.77;;;2.10;;
64633;SDS011;51043;52.406;9.690;2023-04-25T09:21:06;5.00;;;2.40;;
64633;SDS011;51043;52.406;9.690;2023-04-25T09:23:39;2.77;;;1.37;;
64633;SDS011;51043;52.406;9.690;2023-04-25T09:26:08;5.87;;;2.60;;
64633;SDS011;51043;52.406;9.690;2023-04-25T09:28:36;7.07;;;2.13;;
64633;SDS011;51043;52.406;9.690;2023-04-25T09:31:06;7.43;;;2.37;;
64633;SDS011;51043;52.406;9.690;2023-04-25T09:33:44;5.93;;;2.10;;
64633;SDS011;51043;52.406;9.690;2023-04-25T09:36:13;4.40;;;2.27;;
64633;SDS011;51043;52.406;9.690;2023-04-25T09:39:01;6.37;;;2.07;;
64633;SDS011;51043;52.406;9.690;2023-04-25T09:41:33;6.60;;;2.07;;
64633;SDS011;51043;52.406;9.690;2023-04-25T09:44:05;5.53;;;2.30;;
64633;SDS011;51043;52.406;9.690;2023-04-25T09:46:38;5.17;;;1.93;;
64633;SDS011;51043;52.406;9.690;2023-04-25T09:49:15;4.93;;;1.77;;
64633;SDS011;51043;52.406;9.690;2023-04-25T09:51:56;9.40;;;2.67;;
64633;SDS011;51043;52.406;9.690;2023-04-25T09:54:35;11.23;;;2.27;;
64633;SDS011;51043;52.406;9.690;2023-04-25T09:57:10;5.40;;;2.13;;
64633;SDS011;51043;52.406;9.690;2023-04-25T09:59:43;7.97;;;2.33;;
64633;SDS011;51043;52.406;9.690;2023-04-25T10:02:17;5.77;;;2.00;;
64633;SDS011;51043;52.406;9.690;2023-04-25T10:04:49;8.37;;;2.00;;
64633;SDS011;51043;52.406;9.690;2023-04-25T10:07:32;8.33;;;2.00;;
64633;SDS011;51043;52.406;9.690;2023-04-25T10:10:07;4.20;;;1.70;;
64633;SDS011;51043;52.406;9.690;2023-04-25T10:12:41;10.43;;;2.93;;
64633;SDS011;51043;52.406;9.690;2023-04-25T10:15:10;6.37;;;1.80;;
64633;SDS011;51043;52.406;9.690;2023-04-25T10:17:40;7.77;;;2.53;;
64633;SDS011;51043;52.406;9.690;2023-04-25T10:20:12;10.30;;;2.57;;
64633;SDS011;51043;52.406;9.690;2023-04-25T10:22:42;6.77;;;1.50;;
64633;SDS011;51043;52.406;9.690;2023-04-25T10:25:14;9.03;;;2.60;;
64633;SDS011;51043;52.406;9.690;2023-04-25T10:27:42;5.47;;;1.93;;
64633;SDS011;51043;52.406;9.690;2023-04-25T10:30:13;9.73;;;2.40;;
64633;SDS011;51043;52.406;9.690;2023-04-25T10:32:43;4.67;;;1.97;;
64633;SDS011;51043;52.406;9.690;2023-04-25T10:35:13;8.27;;;2.40;;
64633;SDS011;51043;52.406;9.690;2023-04-25T10:37:56;6.77;;;2.33;;
64633;SDS011;51043;52.406;9.690;2023-04-25T10:40:27;6.27;;;1.53;;
64633;SDS011;51043;52.406;9.690;2023-04-25T10:42:56;6.27;;;2.17;;
64633;SDS011;51043;52.406;9.690;2023-04-25T10:46:02;8.00;;;2.43;;
64633;SDS011;51043;52.406;9.690;2023-04-25T10:48:45;11.70;;;2.37;;
64633;SDS011;51043;52.406;9.690;2023-04-25T10:51:17;7.90;;;2.53;;
64633;SDS011;51043;52.406;9.690;2023-04-25T10:53:48;8.37;;;2.37;;
64633;SDS011;51043;52.406;9.690;2023-04-25T10:56:26;2.60;;;1.47;;
64633;SDS011;51043;52.406;9.690;2023-04-25T10:59:08;8.30;;;2.57;;
64633;SDS011;51043;52.406;9.690;2023-04-25T11:01:38;5.40;;;2.40;;
64633;SDS011;51043;52.406;9.690;2023-04-25T11:04:20;2.20;;;1.90;;
64633;SDS011;51043;52.406;9.690;2023-04-25T11:06:57;3.63;;;1.60;;
64633;SDS011;51043;52.406;9.690;2023-04-25T11:09:33;9.30;;;1.97;;
64633;SDS011;51043;52.406;9.690;2023-04-25T11:12:01;4.70;;;2.07;;
64633;SDS011;51043;52.406;9.690;2023-04-25T11:14:29;4.70;;;1.63;;
64633;SDS011;51043;52.406;9.690;2023-04-25T11:16:58;4.07;;;1.63;;
64633;SDS011;51043;52.406;9.690;2023-04-25T11:19:28;5.60;;;2.20;;
64633;SDS011;51043;52.406;9.690;2023-04-25T11:21:57;5.37;;;2.27;;
64633;SDS011;51043;52.406;9.690;2023-04-25T11:24:27;5.30;;;1.90;;
64633;SDS011;51043;52.406;9.690;2023-04-25T11:26:56;8.07;;;2.40;;
64633;SDS011;51043;52.406;9.690;2023-04-25T11:29:30;5.10;;;1.97;;
64633;SDS011;51043;52.406;9.690;2023-04-25T11:32:00;5.90;;;2.13;;
64633;SDS011;51043;52.406;9.690;2023-04-25T11:34:30;4.90;;;1.87;;
64633;SDS011;51043;52.406;9.690;2023-04-25T11:36:59;5.53;;;2.03;;
64633;SDS011;51043;52.406;9.690;2023-04-25T11:39:28;10.17;;;2.17;;
64633;SDS011;51043;52.406;9.690;2023-04-25T11:41:56;6.90;;;2.83;;
64633;SDS011;51043;52.406;9.690;2023-04-25T11:44:32;5.33;;;2.63;;
64633;SDS011;51043;52.406;9.690;2023-04-25T11:47:00;13.77;;;2.53;;
64633;SDS011;51043;52.406;9.690;2023-04-25T11:49:31;7.07;;;2.53;;
64633;SDS011;51043;52.406;9.690;2023-04-25T11:51:59;10.80;;;2.87;;
64633;SDS011;51043;52.406;9.690;2023-04-25T11:54:27;9.40;;;2.70;;
64633;SDS011;51043;52.406;9.690;2023-04-25T11:56:55;12.30;;;2.63;;
64633;SDS011;51043;52.406;9.690;2023-04-25T11:59:27;3.13;;;1.97;;
64633;SDS011;51043;52.406;9.690;2023-04-25T12:01:56;8.53;;;2.77;;
64633;SDS011;51043;52.406;9.690;2023-04-25T12:04:29;7.13;;;2.40;;
64633;SDS011;51043;52.406;9.690;2023-04-25T12:07:00;8.87;;;2.00;;
64633;SDS011;51043;52.406;9.690;2023-04-25T12:09:29;5.60;;;1.97;;
64633;SDS011;51043;52.406;9.690;2023-04-25T12:11:58;2.90;;;1.50;;
64633;SDS011;51043;52.406;9.690;2023-04-25T12:14:29;4.57;;;1.30;;
64633;SDS011;51043;52.406;9.690;2023-04-25T12:17:02;5.07;;;1.70;;
64633;SDS011;51043;52.406;9.690;2023-04-25T12:19:35;4.00;;;1.53;;
64633;SDS011;51043;52.406;9.690;2023-04-25T12:22:19;1.87;;;1.17;;
64633;SDS011;51043;52.406;9.690;2023-04-25T12:24:48;3.07;;;1.50;;
64633;SDS011;51043;52.406;9.690;2023-04-25T12:27:16;2.70;;;1.33;;
64633;SDS011;51043;52.406;9.690;2023-04-25T12:29:50;3.70;;;1.77;;
64633;SDS011;51043;52.406;9.690;2023-04-25T12:32:19;8.70;;;1.73;;
64633;SDS011;51043;52.406;9.690;2023-04-25T12:34:51;4.87;;;1.70;;
64633;SDS011;51043;52.406;9.690;2023-04-25T12:37:19;2.07;;;1.00;;
64633;SDS011;51043;52.406;9.690;2023-04-25T12:39:47;2.20;;;1.13;;
64633;SDS011;51043;52.406;9.690;2023-04-25T12:42:15;3.80;;;1.60;;
64633;SDS011;51043;52.406;9.690;2023-04-25T12:44:43;5.57;;;1.53;;
64633;SDS011;51043;52.406;9.690;2023-04-25T12:47:12;4.43;;;1.80;;
64633;SDS011;51043;52.406;9.690;2023-04-25T12:49:41;1.13;;;1.07;;
64633;SDS011;51043;52.406;9.690;2023-04-25T12:52:10;3.90;;;1.27;;
64633;SDS011;51043;52.406;9.690;2023-04-25T12:54:38;4.90;;;1.60;;
64633;SDS011;51043;52.406;9.690;2023-04-25T12:57:06;6.73;;;1.63;;
64633;SDS011;51043;52.406;9.690;2023-04-25T12:59:34;4.70;;;1.50;;
64633;SDS011;51043;52.406;9.690;2023-04-25T13:02:02;5.40;;;1.67;;
64633;SDS011;51043;52.406;9.690;2023-04-25T13:04:30;7.47;;;2.37;;
64633;SDS011;51043;52.406;9.690;2023-04-25T13:06:59;7.93;;;3.37;;
64633;SDS011;51043;52.406;9.690;2023-04-25T13:09:31;7.67;;;2.30;;
64633;SDS011;51043;52.406;9.690;2023-04-25T13:12:01;4.20;;;1.87;;
64633;SDS011;51043;52.406;9.690;2023-04-25T13:14:30;6.53;;;3.73;;
64633;SDS011;51043;52.406;9.690;2023-04-25T13:16:58;5.67;;;1.47;;
64633;SDS011;51043;52.406;9.690;2023-04-25T13:19:29;5.50;;;1.87;;
64633;SDS011;51043;52.406;9.690;2023-04-25T13:21:57;7.60;;;1.90;;
64633;SDS011;51043;52.406;9.690;2023-04-25T13:24:26;5.87;;;2.07;;
64633;SDS011;51043;52.406;9.690;2023-04-25T13:26:56;1.97;;;1.43;;
64633;SDS011;51043;52.406;9.690;2023-04-25T13:29:24;8.43;;;2.10;;
64633;SDS011;51043;52.406;9.690;2023-04-25T13:31:52;5.73;;;1.87;;
64633;SDS011;51043;52.406;9.690;2023-04-25T13:34:20;4.53;;;1.63;;
64633;SDS011;51043;52.406;9.690;2023-04-25T13:36:48;5.33;;;1.77;;
64633;SDS011;51043;52.406;9.690;2023-04-25T13:39:16;5.37;;;2.30;;
64633;SDS011;51043;52.406;9.690;2023-04-25T13:41:44;3.17;;;1.67;;
64633;SDS011;51043;52.406;9.690;2023-04-25T13:44:13;3.90;;;1.90;;
64633;SDS011;51043;52.406;9.690;2023-04-25T13:46:41;5.43;;;1.93;;
64633;SDS011;51043;52.406;9.690;2023-04-25T13:49:11;11.93;;;6.07;;
64633;SDS011;51043;52.406;9.690;2023-04-25T13:51:39;6.40;;;2.87;;
64633;SDS011;51043;52.406;9.690;2023-04-25T13:54:08;4.70;;;2.70;;
64633;SDS011;51043;52.406;9.690;2023-04-25T13:56:36;4.97;;;1.87;;
64633;SDS011;51043;52.406;9.690;2023-04-25T13:59:04;5.20;;;2.07;;
64633;SDS011;51043;52.406;9.690;2023-04-25T14:01:34;6.33;;;1.93;;
64633;SDS011;51043;52.406;9.690;2023-04-25T14:04:02;9.37;;;2.23;;
64633;SDS011;51043;52.406;9.690;2023-04-25T14:06:31;5.53;;;2.07;;
64633;SDS011;51043;52.406;9.690;2023-04-25T14:09:00;4.90;;;2.50;;
64633;SDS011;51043;52.406;9.690;2023-04-25T14:11:30;5.90;;;1.87;;
64633;SDS011;51043;52.406;9.690;2023-04-25T14:13:58;4.83;;;1.77;;
64633;SDS011;51043;52.406;9.690;2023-04-25T14:16:27;3.53;;;1.67;;
64633;SDS011;51043;52.406;9.690;2023-04-25T14:18:57;5.77;;;1.83;;
64633;SDS011;51043;52.406;9.690;2023-04-25T14:21:29;5.23;;;2.00;;
64633;SDS011;51043;52.406;9.690;2023-04-25T14:23:59;3.67;;;1.90;;
64633;SDS011;51043;52.406;9.690;2023-04-25T14:26:31;4.53;;;2.10;;
64633;SDS011;51043;52.406;9.690;2023-04-25T14:29:00;5.83;;;1.70;;
64633;SDS011;51043;52.406;9.690;2023-04-25T14:31:28;4.50;;;1.80;;
64633;SDS011;51043;52.406;9.690;2023-04-25T14:33:58;6.63;;;2.10;;
64633;SDS011;51043;52.406;9.690;2023-04-25T14:36:29;5.37;;;1.97;;
64633;SDS011;51043;52.406;9.690;2023-04-25T14:38:58;5.53;;;1.90;;
64633;SDS011;51043;52.406;9.690;2023-04-25T14:41:27;3.60;;;1.47;;
64633;SDS011;51043;52.406;9.690;2023-04-25T14:43:55;6.77;;;2.53;;
64633;SDS011;51043;52.406;9.690;2023-04-25T14:46:24;6.30;;;2.00;;
64633;SDS011;51043;52.406;9.690;2023-04-25T14:48:52;5.77;;;2.07;;
64633;SDS011;51043;52.406;9.690;2023-04-25T14:51:23;3.97;;;1.73;;
64633;SDS011;51043;52.406;9.690;2023-04-25T14:53:52;5.53;;;2.20;;
64633;SDS011;51043;52.406;9.690;2023-04-25T14:56:20;3.50;;;1.60;;
64633;SDS011;51043;52.406;9.690;2023-04-25T14:58:48;5.30;;;2.23;;
64633;SDS011;51043;52.406;9.690;2023-04-25T15:01:16;7.37;;;2.13;;
64633;SDS011;51043;52.406;9.690;2023-04-25T15:03:46;4.90;;;1.50;;
64633;SDS011;51043;52.406;9.690;2023-04-25T15:06:15;3.87;;;1.67;;
64633;SDS011;51043;52.406;9.690;2023-04-25T15:08:45;5.87;;;2.03;;